Time;durP1;ratioP1;P1;durP2;ratioP2;P2;SDS_P1;SDS_P2;PMS_P1;PMS_P2;Temp;Humidity;BMP_temperature;BMP_pressure;BME280_temperature;BME280_humidity;BME280_pressure;Samples;Min_cycle;Max_cycle;Signal;HPM_P1;HPM_P2
2022/07/14 00:00:52;;;;;;;3.25;0.40;;;23.70;56.90;;;;;;5071189;28;20561;-73
2022/07/14 00:03:18;;;;;;;4.13;0.52;;;23.70;56.90;;;;;;5071451;28;20049;-73
2022/07/14 00:05:44;;;;;;;2.78;0.30;;;23.70;56.90;;;;;;5071398;28;20392;-73
2022/07/14 00:08:10;;;;;;;1.65;0.55;;;23.70;56.90;;;;;;5071133;28;20048;-73
2022/07/14 00:10:38;;;;;;;2.15;0.40;;;23.60;56.80;;;;;;5071068;28;20041;-73
2022/07/14 00:13:04;;;;;;;3.03;0.43;;;23.60;56.80;;;;;;5070934;28;20045;-73
2022/07/14 00:15:31;;;;;;;3.20;0.60;;;23.60;56.80;;;;;;5070953;28;20063;-73
2022/07/14 00:17:58;;;;;;;3.28;0.60;;;23.70;56.90;;;;;;5072410;28;20127;-73
2022/07/14 00:20:24;;;;;;;3.95;0.50;;;23.60;56.80;;;;;;5054525;28;20044;-73
2022/07/14 00:22:50;;;;;;;2.42;0.30;;;23.60;56.80;;;;;;5071142;28;20059;-73
2022/07/14 00:25:16;;;;;;;2.97;0.55;;;23.60;56.80;;;;;;5072156;28;20048;-73
2022/07/14 00:27:43;;;;;;;2.15;0.30;;;23.60;56.70;;;;;;5071988;28;20040;-73
2022/07/14 00:30:09;;;;;;;2.22;0.30;;;23.50;56.70;;;;;;5071015;28;20045;-73
2022/07/14 00:32:35;;;;;;;3.03;0.60;;;23.60;56.80;;;;;;5070607;28;20082;-73
2022/07/14 00:35:02;;;;;;;3.10;0.40;;;23.50;56.80;;;;;;5070803;28;20044;-74
2022/07/14 00:37:28;;;;;;;2.35;0.30;;;23.50;56.70;;;;;;5070951;28;20037;-72
2022/07/14 00:39:54;;;;;;;1.90;0.30;;;23.50;56.70;;;;;;5070730;28;20485;-73
2022/07/14 00:45:10;;;;;;;2.30;0.68;;;23.50;56.70;;;;;;5130381;27;20132;-74
2022/07/14 00:47:35;;;;;;;3.97;0.70;;;23.50;56.70;;;;;;5128886;28;20043;-73
2022/07/14 00:50:01;;;;;;;2.28;0.60;;;23.50;56.60;;;;;;5129261;28;20123;-73
2022/07/14 00:52:29;;;;;;;4.40;0.30;;;23.50;56.60;;;;;;5128898;27;20071;-73
2022/07/14 00:54:55;;;;;;;1.83;0.30;;;23.50;56.60;;;;;;5128877;28;20118;-73
2022/07/14 00:57:21;;;;;;;1.55;0.20;;;23.50;56.60;;;;;;5129027;28;20055;-73
2022/07/14 00:59:47;;;;;;;2.50;0.57;;;23.50;56.60;;;;;;5130529;27;20127;-73
2022/07/14 01:02:14;;;;;;;2.28;0.30;;;23.40;56.60;;;;;;5130046;27;20039;-73
2022/07/14 01:04:40;;;;;;;3.78;0.43;;;23.40;56.60;;;;;;5128644;28;20048;-72
2022/07/14 01:07:06;;;;;;;4.00;0.70;;;23.40;56.60;;;;;;5128696;28;20101;-73
2022/07/14 01:09:31;;;;;;;2.33;0.30;;;23.40;56.50;;;;;;5129204;27;20103;-74
2022/07/14 01:11:57;;;;;;;3.38;0.25;;;23.40;56.60;;;;;;5128337;28;20043;-73
2022/07/14 01:14:23;;;;;;;2.55;0.43;;;23.40;56.60;;;;;;5129595;27;20035;-72
2022/07/14 01:16:54;;;;;;;3.13;0.30;;;23.40;56.60;;;;;;5128506;28;20510;-73
2022/07/14 01:19:24;;;;;;;1.65;0.30;;;23.40;56.60;;;;;;5129594;27;20043;-68
2022/07/14 01:21:51;;;;;;;3.45;0.70;;;23.40;56.60;;;;;;5128355;27;20043;-73
2022/07/14 01:24:17;;;;;;;2.17;0.30;;;23.40;56.50;;;;;;5128099;28;20495;-73
2022/07/14 01:26:43;;;;;;;2.67;0.30;;;23.30;56.40;;;;;;5128487;28;20051;-73
2022/07/14 01:29:09;;;;;;;3.10;0.60;;;23.30;56.40;;;;;;5128159;28;20044;-73
2022/07/14 01:31:34;;;;;;;1.05;0.20;;;23.30;57.10;;;;;;5129553;28;20041;-73
2022/07/14 01:34:00;;;;;;;1.83;0.40;;;23.30;56.40;;;;;;5128102;28;20043;-73
2022/07/14 01:36:26;;;;;;;3.65;0.57;;;23.30;56.40;;;;;;5129456;27;20042;-73
2022/07/14 01:38:52;;;;;;;2.70;0.50;;;23.30;56.40;;;;;;5128194;28;20411;-72
2022/07/14 01:41:21;;;;;;;0.70;0.20;;;23.20;57.10;;;;;;5128120;28;20043;-73
2022/07/14 01:43:48;;;;;;;2.38;0.30;;;23.20;56.30;;;;;;5128894;27;20055;-73
2022/07/14 01:46:14;;;;;;;2.13;0.30;;;23.30;56.40;;;;;;5127879;27;20104;-73
2022/07/14 01:48:39;;;;;;;2.15;0.20;;;23.20;56.30;;;;;;5127807;28;20039;-73
2022/07/14 01:51:05;;;;;;;2.30;0.40;;;23.20;56.30;;;;;;5129091;28;20127;-72
2022/07/14 01:53:31;;;;;;;1.70;0.50;;;23.20;56.30;;;;;;5129049;28;20047;-73
2022/07/14 01:55:58;;;;;;;0.93;0.20;;;23.20;56.20;;;;;;5118074;28;20039;-72
2022/07/14 01:58:24;;;;;;;1.73;0.30;;;23.20;56.30;;;;;;5115429;28;20039;-73
2022/07/14 02:03:35;;;;;;;0.88;0.20;;;23.20;56.20;;;;;;5113613;28;20044;-73
2022/07/14 02:06:02;;;;;;;2.45;0.40;;;23.20;56.20;;;;;;5114092;28;20042;-73
2022/07/14 02:08:28;;;;;;;1.58;0.28;;;23.20;56.20;;;;;;5113081;28;20471;-73
2022/07/14 02:13:45;;;;;;;0.60;0.20;;;23.20;56.20;;;;;;5099620;28;20047;-73
2022/07/14 02:16:11;;;;;;;1.25;0.88;;;23.10;56.10;;;;;;5113567;28;20078;-73
2022/07/14 02:18:36;;;;;;;2.25;0.30;;;23.10;56.10;;;;;;5113636;28;20079;-73
2022/07/14 02:21:02;;;;;;;1.88;0.47;;;23.10;56.20;;;;;;5113422;27;20054;-73
2022/07/14 02:23:27;;;;;;;1.65;0.30;;;23.10;56.10;;;;;;5113487;28;20100;-73
2022/07/14 02:25:53;;;;;;;3.20;0.40;;;23.10;56.10;;;;;;5113647;28;20036;-72
2022/07/14 02:28:19;;;;;;;2.67;0.20;;;23.10;56.00;;;;;;5113414;28;20437;-73
2022/07/14 02:30:48;;;;;;;1.50;0.20;;;23.10;56.00;;;;;;5113327;28;20068;-73
2022/07/14 02:33:14;;;;;;;1.13;0.30;;;23.10;56.00;;;;;;5113320;28;20048;-73
2022/07/14 02:35:39;;;;;;;1.73;0.43;;;23.10;56.00;;;;;;5114432;28;20046;-73
2022/07/14 02:38:05;;;;;;;2.33;0.30;;;23.10;56.00;;;;;;5113486;28;20047;-74
2022/07/14 02:40:32;;;;;;;1.48;0.20;;;23.10;56.00;;;;;;5113097;28;20479;-73
2022/07/14 02:42:57;;;;;;;1.58;0.30;;;23.00;55.90;;;;;;5112812;28;20040;-72
2022/07/14 02:45:23;;;;;;;1.30;0.22;;;23.10;55.90;;;;;;5113436;28;20043;-72
2022/07/14 02:47:49;;;;;;;2.30;0.30;;;23.00;55.80;;;;;;5114021;28;20070;-73
2022/07/14 02:50:14;;;;;;;2.85;0.20;;;23.00;55.80;;;;;;5113022;28;20423;-73
2022/07/14 02:52:40;;;;;;;1.45;0.20;;;23.00;55.80;;;;;;5113074;28;20126;-73
2022/07/14 02:55:06;;;;;;;1.60;0.20;;;23.00;55.80;;;;;;5113220;28;20032;-72
2022/07/14 02:57:32;;;;;;;1.42;0.20;;;23.00;55.80;;;;;;5112793;28;20083;-73
2022/07/14 02:59:58;;;;;;;1.55;0.20;;;23.00;55.70;;;;;;5114200;28;20075;-73
2022/07/14 03:02:25;;;;;;;1.95;0.30;;;23.00;55.80;;;;;;5112923;28;20044;-73
2022/07/14 03:04:53;;;;;;;1.02;0.20;;;22.90;55.70;;;;;;5112687;28;20082;-73
2022/07/14 03:07:19;;;;;;;1.15;0.28;;;22.90;55.70;;;;;;5112775;28;20118;-73
2022/07/14 03:09:45;;;;;;;0.98;0.40;;;22.90;55.70;;;;;;5112883;28;20122;-72
2022/07/14 03:12:10;;;;;;;1.38;0.30;;;22.90;55.60;;;;;;5112484;28;20392;-74
2022/07/14 03:14:36;;;;;;;1.70;0.50;;;22.90;55.60;;;;;;5112531;28;20040;-74
2022/07/14 03:17:01;;;;;;;2.63;0.40;;;22.90;55.60;;;;;;5112698;28;20044;-73
2022/07/14 03:19:27;;;;;;;1.95;0.25;;;22.90;55.60;;;;;;5112392;28;20380;-74
2022/07/14 03:21:53;;;;;;;1.63;0.30;;;22.90;55.60;;;;;;5112232;28;20043;-74
2022/07/14 03:24:20;;;;;;;1.80;0.40;;;22.90;55.60;;;;;;5112194;28;20067;-73
2022/07/14 03:26:47;;;;;;;2.50;0.28;;;22.90;55.60;;;;;;5112485;28;20036;-74
2022/07/14 03:29:12;;;;;;;1.65;0.25;;;22.90;55.60;;;;;;5112455;28;20036;-68
2022/07/14 03:31:38;;;;;;;0.80;0.30;;;22.90;55.60;;;;;;5112193;28;20040;-73
2022/07/14 03:34:04;;;;;;;1.35;0.30;;;22.90;55.50;;;;;;5113409;28;20036;-73
2022/07/14 03:36:31;;;;;;;1.95;0.20;;;22.80;55.40;;;;;;5112089;28;20039;-74
2022/07/14 03:38:56;;;;;;;1.80;0.30;;;22.80;55.40;;;;;;5113113;28;20490;-73
2022/07/14 03:41:22;;;;;;;2.05;0.30;;;22.80;55.80;;;;;;5113420;28;20063;-73
2022/07/14 03:43:47;;;;;;;1.00;0.15;;;22.80;55.40;;;;;;5111581;28;20488;-73
2022/07/14 03:46:13;;;;;;;1.10;0.20;;;22.80;55.40;;;;;;5113227;28;20039;-74
2022/07/14 03:48:39;;;;;;;0.88;0.25;;;22.80;55.40;;;;;;5111776;28;20043;-73
2022/07/14 03:51:06;;;;;;;1.70;0.55;;;22.80;55.40;;;;;;5111889;28;20051;-73
2022/07/14 03:53:35;;;;;;;1.52;0.30;;;22.80;55.40;;;;;;5094026;28;20319;-73
2022/07/14 03:56:01;;;;;;;1.25;0.20;;;22.80;55.40;;;;;;5112054;28;20043;-74
2022/07/14 03:58:27;;;;;;;0.95;0.40;;;22.80;55.30;;;;;;5113038;28;20042;-75
2022/07/14 04:00:53;;;;;;;3.03;0.40;;;22.80;55.30;;;;;;5111613;28;20048;-73
2022/07/14 04:03:18;;;;;;;1.40;0.20;;;22.70;55.30;;;;;;5111682;28;20093;-74
2022/07/14 04:05:45;;;;;;;1.42;0.30;;;22.70;55.30;;;;;;5111572;28;20123;-73
2022/07/14 04:08:11;;;;;;;1.58;0.15;;;22.80;55.30;;;;;;5111417;28;20051;-73
2022/07/14 04:10:37;;;;;;;2.22;0.70;;;22.70;55.30;;;;;;5111489;28;20501;-73
2022/07/14 04:13:03;;;;;;;1.67;0.20;;;22.70;55.30;;;;;;5112758;28;20118;-74
2022/07/14 04:15:30;;;;;;;2.50;0.52;;;22.70;55.30;;;;;;5111282;28;20043;-74
2022/07/14 04:17:56;;;;;;;0.75;0.20;;;22.70;55.20;;;;;;5111144;28;20089;-74
2022/07/14 04:20:23;;;;;;;0.93;0.15;;;22.70;55.20;;;;;;5111475;28;20044;-74
2022/07/14 04:22:48;;;;;;;1.60;0.20;;;22.60;55.20;;;;;;5111347;28;20437;-74
2022/07/14 04:25:15;;;;;;;1.13;0.20;;;22.70;55.20;;;;;;5111173;28;20084;-74
2022/07/14 04:27:41;;;;;;;2.47;0.20;;;22.70;55.20;;;;;;5111137;28;20062;-73
2022/07/14 04:30:11;;;;;;;0.93;0.20;;;22.60;55.10;;;;;;5111173;28;20540;-73
2022/07/14 04:32:37;;;;;;;0.70;0.20;;;22.60;55.10;;;;;;5111065;28;20544;-74
2022/07/14 04:35:04;;;;;;;1.63;0.25;;;22.60;55.10;;;;;;5112415;28;20403;-73
2022/07/14 04:37:30;;;;;;;1.88;0.30;;;22.60;55.10;;;;;;5112285;28;20499;-73
2022/07/14 04:39:56;;;;;;;1.00;0.20;;;22.60;55.10;;;;;;5112344;28;20035;-73
2022/07/14 04:42:22;;;;;;;0.80;0.10;;;22.60;55.80;;;;;;5111139;28;20560;-73
2022/07/14 04:44:48;;;;;;;1.60;0.20;;;22.60;55.10;;;;;;5110787;28;20058;-73
2022/07/14 04:47:17;;;;;;;0.90;0.10;;;22.50;55.00;;;;;;5110982;28;20479;-73
2022/07/14 04:52:28;;;;;;;1.33;0.28;;;22.60;55.10;;;;;;5110723;28;20039;-72
2022/07/14 04:54:53;;;;;;;1.02;0.32;;;22.60;55.20;;;;;;5111226;28;20204;-73
2022/07/14 04:57:20;;;;;;;1.25;0.20;;;22.50;55.10;;;;;;5112237;28;20036;-73
2022/07/14 04:59:46;;;;;;;1.33;0.20;;;22.50;55.10;;;;;;5110944;28;20123;-72
2022/07/14 05:02:12;;;;;;;1.15;0.10;;;22.60;55.20;;;;;;5110767;28;20036;-69
2022/07/14 05:04:38;;;;;;;1.48;0.25;;;22.50;55.10;;;;;;5110840;28;20046;-73
2022/07/14 05:07:04;;;;;;;1.05;0.20;;;22.50;55.10;;;;;;5110867;28;20040;-73
2022/07/14 05:09:32;;;;;;;1.00;0.13;;;22.50;55.20;;;;;;5112091;28;20391;-73
2022/07/14 05:11:59;;;;;;;1.05;0.25;;;22.50;55.20;;;;;;5110740;28;20552;-72
2022/07/14 05:14:25;;;;;;;0.73;0.10;;;22.50;55.20;;;;;;5110708;28;20046;-73
2022/07/14 05:16:50;;;;;;;0.77;0.30;;;22.50;55.20;;;;;;5110935;28;20039;-73
2022/07/14 05:19:19;;;;;;;0.45;0.20;;;22.50;55.20;;;;;;5110708;28;20047;-73
2022/07/14 05:21:45;;;;;;;0.95;0.15;;;22.50;55.30;;;;;;5111778;28;20035;-73
2022/07/14 05:24:11;;;;;;;1.73;0.30;;;22.50;55.30;;;;;;5110731;28;20441;-73
2022/07/14 05:26:37;;;;;;;1.13;0.13;;;22.40;55.20;;;;;;5110623;28;20039;-73
2022/07/14 05:29:03;;;;;;;0.80;0.20;;;22.50;55.30;;;;;;5110641;28;20085;-73
2022/07/14 05:31:29;;;;;;;2.58;0.20;;;22.50;55.40;;;;;;5115054;28;20079;-73
2022/07/14 05:33:56;;;;;;;2.72;0.90;;;22.50;55.30;;;;;;5113940;28;20428;-71
2022/07/14 05:36:23;;;;;;;11.93;3.00;;;22.50;55.30;;;;;;5114557;28;20039;-68
2022/07/14 05:38:53;;;;;;;8.02;2.72;;;22.50;55.20;;;;;;5113826;28;20048;-68
2022/07/14 05:41:19;;;;;;;4.55;1.50;;;22.50;55.00;;;;;;5114070;28;20044;-68
2022/07/14 05:43:46;;;;;;;5.95;1.88;;;22.50;54.70;;;;;;5113996;28;20126;-67
2022/07/14 05:46:13;;;;;;;5.38;1.08;;;22.40;54.60;;;;;;5113234;28;20035;-68
2022/07/14 05:48:38;;;;;;;3.85;0.82;;;22.40;54.40;;;;;;5112288;28;20116;-70
2022/07/14 05:53:44;;;;;;;5.13;0.82;;;22.30;54.30;;;;;;5149968;27;1216540;-69
2022/07/14 05:56:11;;;;;;;6.45;0.98;;;22.30;54.10;;;;;;5153047;27;20048;-70
2022/07/14 05:58:37;;;;;;;6.93;0.45;;;22.20;54.20;;;;;;5150510;27;20049;-70
2022/07/14 06:01:04;;;;;;;4.10;0.32;;;22.30;54.30;;;;;;5154054;27;20039;-71
2022/07/14 06:03:30;;;;;;;3.58;0.75;;;22.20;54.10;;;;;;5148215;27;20530;-72
2022/07/14 06:05:59;;;;;;;2.22;0.40;;;22.20;54.10;;;;;;5155970;27;20038;-72
2022/07/14 06:08:25;;;;;;;6.25;0.50;;;22.20;54.00;;;;;;5153149;27;20125;-71
2022/07/14 06:10:51;;;;;;;2.97;0.50;;;22.20;54.00;;;;;;5134606;27;20118;-70
2022/07/14 06:13:17;;;;;;;5.38;0.47;;;22.10;53.90;;;;;;5143970;27;20042;-71
2022/07/14 06:15:44;;;;;;;7.47;1.38;;;22.10;53.80;;;;;;5150742;27;20030;-69
2022/07/14 06:18:10;;;;;;;5.28;0.40;;;22.10;53.80;;;;;;5165905;27;20088;-71
2022/07/14 06:20:36;;;;;;;4.20;0.57;;;22.10;54.00;;;;;;5141948;27;20047;-71
2022/07/14 06:23:02;;;;;;;4.22;0.40;;;22.10;54.00;;;;;;5144926;27;20049;-72
2022/07/14 06:25:27;;;;;;;3.28;0.40;;;22.20;54.00;;;;;;5150715;27;20074;-69
2022/07/14 06:27:53;;;;;;;5.53;0.60;;;22.20;54.10;;;;;;5121667;27;20057;-69
2022/07/14 06:30:19;;;;;;;5.18;0.57;;;22.20;53.90;;;;;;5140519;27;20405;-69
2022/07/14 06:32:45;;;;;;;8.23;0.40;;;22.20;53.80;;;;;;5135712;27;20085;-70
2022/07/14 06:35:11;;;;;;;3.28;0.30;;;22.20;53.60;;;;;;5127737;27;20031;-70
2022/07/14 06:37:37;;;;;;;5.15;0.50;;;22.10;53.60;;;;;;5132946;27;20038;-71
2022/07/14 06:40:05;;;;;;;10.55;0.82;;;22.10;53.60;;;;;;5131329;27;20043;-71
2022/07/14 06:42:32;;;;;;;3.00;0.40;;;22.10;53.60;;;;;;5132521;27;20039;-72
2022/07/14 06:44:58;;;;;;;3.80;0.40;;;22.10;53.50;;;;;;5133673;27;20499;-72
2022/07/14 06:47:24;;;;;;;4.05;0.40;;;22.10;53.60;;;;;;5144058;27;20105;-77
2022/07/14 06:49:49;;;;;;;4.43;0.40;;;22.10;53.70;;;;;;5132153;27;20531;-73
2022/07/14 06:52:15;;;;;;;7.90;0.40;;;22.20;53.80;;;;;;5148830;27;20058;-73
2022/07/14 06:54:41;;;;;;;3.22;0.32;;;22.20;53.70;;;;;;5141418;27;20046;-77
2022/07/14 06:57:07;;;;;;;6.80;0.50;;;22.20;53.90;;;;;;5139214;27;20446;-74
2022/07/14 06:59:32;;;;;;;8.93;0.85;;;22.20;53.70;;;;;;5128448;27;20038;-75
2022/07/14 07:01:58;;;;;;;5.50;0.50;;;22.20;53.50;;;;;;5135097;27;20053;-74
2022/07/14 07:04:24;;;;;;;2.08;0.20;;;22.20;53.30;;;;;;5123329;27;20094;-75
2022/07/14 07:06:51;;;;;;;3.72;0.50;;;22.10;52.80;;;;;;5132790;27;20027;-75
2022/07/14 07:09:19;;;;;;;2.20;0.43;;;22.10;52.90;;;;;;5118560;27;21587;-74
2022/07/14 07:11:46;;;;;;;3.38;0.30;;;22.00;53.10;;;;;;5132687;27;20495;-73
2022/07/14 07:14:12;;;;;;;8.85;0.60;;;22.00;53.20;;;;;;5119768;27;20060;-74
2022/07/14 07:16:38;;;;;;;4.60;0.52;;;22.10;53.40;;;;;;5134013;27;20347;-74
2022/07/14 07:19:04;;;;;;;6.32;0.70;;;22.10;53.30;;;;;;5116596;27;20039;-73
2022/07/14 07:21:30;;;;;;;6.07;0.43;;;22.00;53.90;;;;;;5119226;27;20043;-73
2022/07/14 07:23:56;;;;;;;6.05;0.30;;;22.00;53.30;;;;;;5135537;27;20039;-70
2022/07/14 07:26:25;;;;;;;3.83;0.30;;;22.00;53.60;;;;;;5119068;27;20556;-76
2022/07/14 07:28:52;;;;;;;4.38;0.55;;;21.90;53.70;;;;;;5127222;27;20063;-73
2022/07/14 07:31:18;;;;;;;6.00;1.13;;;22.10;54.00;;;;;;5139682;27;20035;-75
2022/07/14 07:33:47;;;;;;;7.03;0.70;;;22.10;53.90;;;;;;5128850;27;20043;-72
2022/07/14 07:36:13;;;;;;;5.28;0.40;;;22.20;53.90;;;;;;5118303;27;20039;-73
2022/07/14 07:38:42;;;;;;;4.43;0.75;;;22.10;53.80;;;;;;5111172;27;20123;-72
2022/07/14 07:41:08;;;;;;;6.75;0.60;;;22.20;54.00;;;;;;5119327;27;20042;-70
2022/07/14 07:43:34;;;;;;;3.08;0.50;;;22.20;53.80;;;;;;5118892;27;20517;-74
2022/07/14 07:46:00;;;;;;;5.00;0.30;;;22.20;53.90;;;;;;5122804;27;20546;-82
2022/07/14 07:48:29;;;;;;;3.10;0.38;;;22.20;54.10;;;;;;5120887;27;20038;-70
2022/07/14 07:50:55;;;;;;;4.28;0.30;;;22.20;54.00;;;;;;5132853;27;20178;-70
2022/07/14 07:53:22;;;;;;;7.30;0.38;;;22.20;53.80;;;;;;5114903;27;20058;-68
2022/07/14 07:55:48;;;;;;;3.97;0.30;;;22.20;53.30;;;;;;5135840;27;20051;-71
2022/07/14 07:58:14;;;;;;;5.32;0.30;;;22.10;53.10;;;;;;5128108;27;20041;-73
2022/07/14 08:00:40;;;;;;;3.03;0.35;;;22.10;53.00;;;;;;5119544;27;20674;-76
2022/07/14 08:03:05;;;;;;;2.70;0.60;;;22.10;52.50;;;;;;5120328;27;20038;-72
2022/07/14 08:05:32;;;;;;;4.00;0.30;;;22.10;53.20;;;;;;5114570;27;20424;-70
2022/07/14 08:07:59;;;;;;;6.03;0.38;;;22.10;53.30;;;;;;5109465;27;20031;-73
2022/07/14 08:10:25;;;;;;;4.47;0.30;;;22.20;53.30;;;;;;5113185;27;20136;-72
2022/07/14 08:12:51;;;;;;;2.72;0.10;;;22.30;53.30;;;;;;5128478;27;20662;-71
2022/07/14 08:15:17;;;;;;;4.57;0.25;;;22.30;53.20;;;;;;5123161;27;20058;-70
2022/07/14 08:17:43;;;;;;;6.47;0.40;;;22.30;53.10;;;;;;5126133;27;20481;-73
2022/07/14 08:20:09;;;;;;;3.13;0.20;;;22.30;53.00;;;;;;5132137;27;20049;-72
2022/07/14 08:22:36;;;;;;;3.92;0.65;;;22.40;53.20;;;;;;5139804;27;20497;-73
2022/07/14 08:25:03;;;;;;;5.18;0.50;;;22.40;53.30;;;;;;5135407;27;20060;-71
2022/07/14 08:27:28;;;;;;;3.28;0.30;;;22.50;53.40;;;;;;5128209;27;20035;-70
2022/07/14 08:29:54;;;;;;;2.53;0.20;;;22.50;53.30;;;;;;5144127;27;20103;-68
2022/07/14 08:35:15;;;;;;;1.55;0.17;;;22.60;53.20;;;;;;5133739;27;1201582;-70
2022/07/14 08:37:41;;;;;;;2.85;0.20;;;22.60;53.00;;;;;;5128102;27;20043;-70
2022/07/14 08:40:10;;;;;;;4.32;0.20;;;22.60;52.90;;;;;;5120156;27;20120;-70
2022/07/14 08:42:42;;;;;;;4.18;0.40;;;22.60;52.80;;;;;;5124896;27;20042;-70
2022/07/14 08:45:10;;;;;;;6.55;0.35;;;22.60;53.40;;;;;;5117534;27;20056;-68
2022/07/14 08:47:37;;;;;;;5.75;0.40;;;22.60;52.60;;;;;;5125907;27;20071;-70
2022/07/14 08:50:09;;;;;;;6.28;0.55;;;22.70;52.50;;;;;;5121654;27;20053;-72
2022/07/14 08:52:36;;;;;;;3.42;0.17;;;22.60;52.30;;;;;;5138514;27;20681;-73
2022/07/14 08:55:04;;;;;;;11.40;1.13;;;22.70;52.40;;;;;;5127260;27;20442;-75
2022/07/14 08:57:32;;;;;;;4.45;0.57;;;22.70;52.50;;;;;;5118043;27;20040;-74
2022/07/14 08:59:57;;;;;;;7.88;0.38;;;22.70;52.50;;;;;;5118382;27;20035;-73
2022/07/14 09:02:23;;;;;;;2.40;0.38;;;22.80;52.60;;;;;;5127173;27;20039;-73
2022/07/14 09:04:49;;;;;;;6.60;0.30;;;22.90;52.80;;;;;;5136704;27;20042;-74
2022/07/14 09:10:13;;;;;;;8.10;0.60;;;23.00;52.80;;;;;;5104216;27;20454;-73
2022/07/14 09:12:41;;;;;;;4.70;0.43;;;23.10;52.60;;;;;;5091714;28;20135;-73
2022/07/14 09:17:56;;;;;;;7.07;0.63;;;23.30;52.60;;;;;;5089794;28;20791;-77
2022/07/14 09:20:23;;;;;;;4.30;0.50;;;23.40;52.60;;;;;;5094657;28;20063;-76
2022/07/14 09:22:58;;;;;;;6.10;0.40;;;23.50;52.70;;;;;;5094431;28;20076;-77
2022/07/14 09:25:25;;;;;;;6.57;0.20;;;23.50;52.70;;;;;;5087237;28;20047;-76
2022/07/14 09:27:52;;;;;;;1.90;0.30;;;23.50;52.60;;;;;;5087555;28;20208;-68
2022/07/14 09:30:18;;;;;;;5.35;0.40;;;23.60;52.70;;;;;;5089537;28;20048;-74
2022/07/14 09:32:55;;;;;;;6.15;0.63;;;23.60;52.70;;;;;;5088108;28;20032;-75
2022/07/14 09:35:25;;;;;;;3.88;0.50;;;23.70;52.70;;;;;;5091472;28;20051;-74
2022/07/14 09:37:54;;;;;;;2.22;0.28;;;23.70;52.70;;;;;;5091838;28;20040;-72
2022/07/14 09:43:05;;;;;;;5.65;0.35;;;23.80;52.80;;;;;;5066687;28;20466;-72
2022/07/14 09:45:37;;;;;;;5.97;0.40;;;23.80;52.80;;;;;;5067733;28;20052;-74
2022/07/14 09:51:00;;;;;;;3.75;0.30;;;23.80;52.70;;;;;;5108497;27;20533;-72
2022/07/14 09:53:31;;;;;;;4.78;0.28;;;23.90;52.30;;;;;;5087847;28;20089;-77
2022/07/14 10:01:24;;;;;;;6.03;0.40;;;23.90;52.30;;;;;;5093694;27;20071;-74
2022/07/14 10:03:53;;;;;;;6.93;0.57;;;23.80;52.50;;;;;;5095643;28;20133;-70
2022/07/14 10:06:21;;;;;;;3.30;0.20;;;23.90;52.60;;;;;;5095969;28;20108;-73
2022/07/14 10:08:53;;;;;;;3.25;0.28;;;23.90;52.20;;;;;;5090623;28;20036;-73
2022/07/14 10:11:20;;;;;;;5.85;0.50;;;23.90;52.30;;;;;;5115598;28;20063;-73
2022/07/14 10:13:45;;;;;;;5.55;0.30;;;23.90;52.40;;;;;;5095572;28;20048;-73
2022/07/14 10:16:12;;;;;;;5.10;0.57;;;23.90;52.50;;;;;;5094437;28;20113;-72
2022/07/14 10:18:42;;;;;;;8.60;0.20;;;23.90;52.30;;;;;;5097581;28;20145;-72
2022/07/14 10:21:10;;;;;;;5.47;0.40;;;23.90;52.40;;;;;;5098003;28;20121;-72
2022/07/14 10:23:37;;;;;;;5.07;0.30;;;23.90;52.50;;;;;;5111143;27;20042;-67
2022/07/14 10:26:02;;;;;;;2.78;0.25;;;23.90;52.50;;;;;;5108355;28;20036;-68
2022/07/14 10:28:28;;;;;;;3.42;0.60;;;23.90;52.00;;;;;;5106516;28;20032;-70
2022/07/14 10:44:56;;;;;;;3.50;0.40;;;23.90;51.50;;;;;;5076512;27;20410;-70
2022/07/14 10:47:25;;;;;;;3.65;0.30;;;23.50;50.20;;;;;;5034071;28;20049;-69
2022/07/14 11:06:19;;;;;;;4.85;0.50;;;23.50;49.60;;;;;;5086179;27;20467;-68
2022/07/14 11:09:05;;;;;;;3.30;0.50;;;23.50;49.90;;;;;;5069786;28;20416;-70
2022/07/14 11:11:32;;;;;;;2.78;0.20;;;23.50;50.00;;;;;;5086143;28;20043;-75
2022/07/14 11:19:37;;;;;;;4.60;0.10;;;23.60;50.20;;;;;;5067741;27;20434;-76
2022/07/14 11:22:20;;;;;;;5.93;0.20;;;23.60;50.50;;;;;;5074662;28;20044;-76
2022/07/14 11:37:16;;;;;;;2.88;0.35;;;23.70;50.00;;;;;;5069484;28;20052;-73
2022/07/14 11:39:45;;;;;;;4.38;0.20;;;23.70;49.90;;;;;;5068920;28;20090;-74
2022/07/14 11:44:51;;;;;;;4.30;0.10;;;23.60;49.60;;;;;;5090787;27;20451;-72
2022/07/14 11:50:03;;;;;;;2.83;0.20;;;23.60;49.60;;;;;;5016894;27;4070964;-75
2022/07/14 11:52:32;;;;;;;3.50;0.55;;;23.60;49.60;;;;;;5132493;27;20051;-72
2022/07/14 11:55:01;;;;;;;4.47;0.20;;;23.60;49.80;;;;;;5119140;27;20091;-72
2022/07/14 11:57:27;;;;;;;2.83;0.10;;;23.60;49.10;;;;;;5116688;27;20280;-72
2022/07/14 12:00:00;;;;;;;1.88;0.10;;;23.50;48.90;;;;;;5116151;27;20036;-70
2022/07/14 12:02:26;;;;;;;4.25;0.17;;;23.50;49.00;;;;;;5125938;27;20038;-68
2022/07/14 12:04:56;;;;;;;3.08;0.13;;;23.50;49.10;;;;;;5112402;27;20054;-69
2022/07/14 12:07:25;;;;;;;3.20;0.13;;;23.50;49.20;;;;;;5115552;27;20121;-71
2022/07/14 12:09:53;;;;;;;2.47;0.10;;;23.50;49.30;;;;;;5132126;27;20035;-69
2022/07/14 12:12:23;;;;;;;3.88;0.82;;;23.50;49.40;;;;;;5118050;27;20119;-73
2022/07/14 12:14:51;;;;;;;1.80;0.10;;;23.50;49.60;;;;;;5113876;27;20130;-72
2022/07/14 12:17:19;;;;;;;2.83;0.30;;;23.60;49.90;;;;;;5132700;27;20364;-69
2022/07/14 12:19:45;;;;;;;0.95;0.17;;;23.60;50.20;;;;;;5123799;27;20042;-78
2022/07/14 12:22:11;;;;;;;4.85;0.40;;;23.70;50.30;;;;;;5115242;27;20038;-76
2022/07/14 12:24:37;;;;;;;3.13;0.57;;;23.70;50.60;;;;;;5108423;27;20119;-77
2022/07/14 12:27:05;;;;;;;4.90;0.40;;;23.70;50.60;;;;;;5113888;27;20039;-77
2022/07/14 12:29:32;;;;;;;5.95;0.22;;;23.70;50.60;;;;;;5109546;27;20083;-74
2022/07/14 12:31:59;;;;;;;10.82;0.20;;;23.70;50.70;;;;;;5110398;27;20042;-72
2022/07/14 12:34:26;;;;;;;5.07;0.17;;;23.80;50.90;;;;;;5113278;27;20047;-75
2022/07/14 12:36:55;;;;;;;4.72;0.20;;;23.80;50.90;;;;;;5108203;27;20335;-77
2022/07/14 12:39:21;;;;;;;5.45;0.30;;;23.90;51.00;;;;;;5111157;27;20043;-73
2022/07/14 12:41:48;;;;;;;3.38;0.10;;;23.90;51.10;;;;;;5115053;27;20031;-76
2022/07/14 12:44:13;;;;;;;4.68;0.38;;;23.90;51.10;;;;;;5112535;27;20049;-73
2022/07/14 12:46:40;;;;;;;6.82;0.35;;;23.90;51.10;;;;;;5113783;27;20217;-75
2022/07/14 12:49:08;;;;;;;5.15;0.15;;;23.90;51.30;;;;;;5112098;27;20059;-74
2022/07/14 12:54:16;;;;;;;5.78;0.20;;;24.00;51.40;;;;;;5070008;28;20389;-77
2022/07/14 12:59:34;;;;;;;3.08;0.30;;;24.00;51.70;;;;;;5126358;27;20370;-76
2022/07/14 13:02:04;;;;;;;6.40;0.20;;;23.90;51.70;;;;;;5121822;27;20048;-76
2022/07/14 13:10:17;;;;;;;2.63;0.20;;;23.80;49.60;;;;;;5108084;27;20387;-73
2022/07/14 13:15:25;;;;;;;5.00;0.52;;;23.70;49.80;;;;;;5126175;27;20411;-74
2022/07/14 13:17:56;;;;;;;4.85;0.10;;;23.70;49.80;;;;;;5117379;27;20040;-75
2022/07/14 13:28:53;;;;;;;2.85;0.17;;;23.70;50.20;;;;;;5125669;27;20358;-73
2022/07/14 13:31:24;;;;;;;2.67;0.20;;;23.70;50.20;;;;;;5125283;28;20108;-74
2022/07/14 13:33:52;;;;;;;3.83;0.20;;;23.80;50.40;;;;;;5126304;28;20074;-76
2022/07/14 13:36:20;;;;;;;3.53;0.40;;;23.80;50.50;;;;;;5125078;28;20043;-75
2022/07/14 13:38:46;;;;;;;6.43;0.43;;;23.80;50.60;;;;;;5127424;28;20035;-76
2022/07/14 13:41:14;;;;;;;4.13;0.20;;;23.90;50.80;;;;;;5126359;28;20095;-77
2022/07/14 13:43:44;;;;;;;4.22;0.30;;;23.90;51.00;;;;;;5123805;28;20127;-76
2022/07/14 13:46:11;;;;;;;5.38;0.10;;;23.90;51.20;;;;;;5127574;27;20407;-78
2022/07/14 13:48:37;;;;;;;4.65;0.50;;;23.90;51.20;;;;;;5123476;28;20515;-72
2022/07/14 13:53:49;;;;;;;2.28;0.52;;;23.90;49.40;;;;;;5125310;28;20036;-72
2022/07/14 13:56:15;;;;;;;4.43;0.28;;;23.90;49.00;;;;;;5122860;27;20035;-69
2022/07/14 13:58:40;;;;;;;9.40;0.20;;;23.80;49.10;;;;;;5124321;28;20047;-70
2022/07/14 14:01:10;;;;;;;4.18;0.70;;;23.80;49.30;;;;;;5126597;28;20047;-69
2022/07/14 14:03:37;;;;;;;3.23;0.20;;;23.80;48.70;;;;;;5121645;27;20047;-69
2022/07/14 14:06:06;;;;;;;4.32;0.10;;;23.70;48.50;;;;;;5125633;28;20367;-71
2022/07/14 14:08:35;;;;;;;7.38;0.20;;;23.70;48.70;;;;;;5125838;27;20047;-71
2022/07/14 14:11:04;;;;;;;3.65;0.17;;;23.70;48.60;;;;;;5124399;28;20091;-71
2022/07/14 14:13:33;;;;;;;3.67;0.20;;;23.70;48.70;;;;;;5126135;27;20063;-74
2022/07/14 14:16:00;;;;;;;2.50;0.10;;;23.70;48.70;;;;;;5123769;28;20063;-77
2022/07/14 14:18:30;;;;;;;2.42;0.10;;;23.70;48.60;;;;;;5127781;27;20118;-78
2022/07/14 14:20:58;;;;;;;0.70;0.00;;;23.70;49.00;;;;;;5125427;28;20051;-77
2022/07/14 14:23:24;;;;;;;3.17;0.10;;;23.70;49.30;;;;;;5126413;28;20514;-69
2022/07/14 14:25:50;;;;;;;1.75;0.35;;;23.80;49.40;;;;;;5125122;28;20122;-70
2022/07/14 14:28:17;;;;;;;1.77;0.10;;;23.80;48.30;;;;;;5121464;28;20164;-70
2022/07/14 14:30:43;;;;;;;3.38;0.10;;;23.70;47.90;;;;;;5123060;27;20047;-70
2022/07/14 14:33:12;;;;;;;6.40;0.40;;;23.70;47.80;;;;;;5125533;28;20042;-77
2022/07/14 14:35:38;;;;;;;6.03;0.30;;;23.60;47.80;;;;;;5124198;28;20039;-77